FIN7LT EFHK-EKCH
Flight info
| Callsign | FIN7LT |
|---|---|
| Flight time | N/A |
| Altitude | 36000 |
| Route | NUNTO Y369 REKDO DCT KOSKA DCT KOTAM L990 EKRAL P605 TIDVU |
| Aircraft | A321/M-SDE1E2E3FGHIJ1J4J5M1RWXYZ/LB1D1 |
Departure
| Time | 2026-04-24 15:44 |
|---|---|
| Airport | Helsinki Vantaa Airport (EFHK) |
Arrival
| Time | N/A |
|---|---|
| Airport | Copenhagen Kastrup Airport (EKCH) |
| Time | Latitude | Longitude | Altitude | Speed | Heading |
|---|---|---|---|---|---|
| 2026-04-24 15:09 | 60.31865 | 24.97003 | 164 ft | 0 kts | 242° |
| 2026-04-24 15:35 | 60.31865 | 24.97006 | 163 ft | 2 kts | 242° |
| 2026-04-24 15:35 | 60.31877 | 24.97053 | 163 ft | 4 kts | 246° |
| 2026-04-24 15:36 | 60.31885 | 24.97103 | 163 ft | 4 kts | 271° |
| 2026-04-24 15:36 | 60.31855 | 24.97163 | 163 ft | 4 kts | 333° |
| 2026-04-24 15:36 | 60.31849 | 24.97170 | 163 ft | 0 kts | 333° |
| 2026-04-24 15:38 | 60.31856 | 24.97163 | 163 ft | 3 kts | 333° |
| 2026-04-24 15:38 | 60.31882 | 24.97137 | 163 ft | 6 kts | 334° |
| 2026-04-24 15:39 | 60.31928 | 24.97091 | 163 ft | 9 kts | 332° |
| 2026-04-24 15:39 | 60.31991 | 24.97026 | 163 ft | 12 kts | 334° |
| 2026-04-24 15:39 | 60.32070 | 24.96939 | 163 ft | 14 kts | 330° |
| 2026-04-24 15:39 | 60.32162 | 24.96834 | 164 ft | 16 kts | 330° |
| 2026-04-24 15:40 | 60.32247 | 24.96713 | 166 ft | 12 kts | 295° |
| 2026-04-24 15:40 | 60.32209 | 24.96576 | 168 ft | 13 kts | 227° |
| 2026-04-24 15:40 | 60.32141 | 24.96425 | 168 ft | 17 kts | 227° |
| 2026-04-24 15:40 | 60.32052 | 24.96234 | 168 ft | 20 kts | 227° |
| 2026-04-24 15:41 | 60.31961 | 24.96032 | 169 ft | 20 kts | 228° |
| 2026-04-24 15:41 | 60.31865 | 24.95818 | 169 ft | 21 kts | 227° |
| 2026-04-24 15:41 | 60.31763 | 24.95594 | 170 ft | 22 kts | 227° |
| 2026-04-24 15:41 | 60.31657 | 24.95363 | 168 ft | 23 kts | 227° |
| 2026-04-24 15:42 | 60.31546 | 24.95115 | 168 ft | 24 kts | 227° |
| 2026-04-24 15:42 | 60.31429 | 24.94859 | 166 ft | 26 kts | 227° |
| 2026-04-24 15:42 | 60.31305 | 24.94584 | 160 ft | 25 kts | 227° |
| 2026-04-24 15:42 | 60.31182 | 24.94313 | 159 ft | 27 kts | 227° |
| 2026-04-24 15:43 | 60.31067 | 24.94060 | 158 ft | 18 kts | 228° |
| 2026-04-24 15:43 | 60.31041 | 24.93833 | 159 ft | 17 kts | 292° |
| 2026-04-24 15:43 | 60.31141 | 24.93735 | 160 ft | 17 kts | 6° |
| 2026-04-24 15:43 | 60.31239 | 24.93878 | 159 ft | 23 kts | 47° |
| 2026-04-24 15:44 | 60.31515 | 24.94480 | 165 ft | 96 kts | 47° |
| 2026-04-24 15:44 | 60.32113 | 24.95798 | 176 ft | 156 kts | 47° |
| 2026-04-24 15:44 | 60.32887 | 24.97560 | 652 ft | 167 kts | 45° |
| 2026-04-24 15:44 | 60.33636 | 24.99294 | 1556 ft | 161 kts | 44° |
| 2026-04-24 15:45 | 60.34369 | 25.00975 | 2220 ft | 162 kts | 42° |
| 2026-04-24 15:45 | 60.35175 | 25.02716 | 2543 ft | 182 kts | 42° |
| 2026-04-24 15:45 | 60.36102 | 25.04697 | 2822 ft | 204 kts | 43° |
| 2026-04-24 15:45 | 60.37132 | 25.06918 | 3081 ft | 229 kts | 43° |
| 2026-04-24 15:46 | 60.38278 | 25.09408 | 3488 ft | 251 kts | 44° |
| 2026-04-24 15:46 | 60.39564 | 25.11846 | 4244 ft | 255 kts | 30° |
| 2026-04-24 15:46 | 60.41199 | 25.13171 | 5088 ft | 253 kts | 6° |
| 2026-04-24 15:46 | 60.42921 | 25.12941 | 5964 ft | 253 kts | 341° |
| 2026-04-24 15:47 | 60.44433 | 25.11161 | 6810 ft | 255 kts | 316° |
| 2026-04-24 15:47 | 60.45405 | 25.08155 | 7690 ft | 260 kts | 291° |
| 2026-04-24 15:47 | 60.45614 | 25.04488 | 8543 ft | 270 kts | 266° |
| 2026-04-24 15:47 | 60.44942 | 25.00855 | 9384 ft | 284 kts | 244° |
| 2026-04-24 15:48 | 60.43868 | 24.97438 | 10061 ft | 294 kts | 243° |
| 2026-04-24 15:48 | 60.42712 | 24.93824 | 10288 ft | 317 kts | 243° |
| 2026-04-24 15:48 | 60.41465 | 24.89958 | 10646 ft | 334 kts | 242° |
| 2026-04-24 15:48 | 60.40178 | 24.85999 | 11305 ft | 339 kts | 243° |
| 2026-04-24 15:49 | 60.38869 | 24.81991 | 12044 ft | 343 kts | 243° |
| 2026-04-24 15:49 | 60.37564 | 24.77995 | 12765 ft | 346 kts | 243° |
| 2026-04-24 15:49 | 60.36231 | 24.73904 | 13504 ft | 349 kts | 244° |
| 2026-04-24 15:49 | 60.34891 | 24.69783 | 14156 ft | 352 kts | 244° |
| 2026-04-24 15:50 | 60.33537 | 24.65620 | 14811 ft | 355 kts | 244° |
| 2026-04-24 15:50 | 60.32177 | 24.61439 | 15462 ft | 358 kts | 244° |
| 2026-04-24 15:50 | 60.30808 | 24.57228 | 16120 ft | 361 kts | 244° |
| 2026-04-24 15:50 | 60.29439 | 24.53017 | 16759 ft | 364 kts | 244° |
| 2026-04-24 15:51 | 60.28041 | 24.48726 | 17402 ft | 367 kts | 244° |
| 2026-04-24 15:51 | 60.26628 | 24.44405 | 18036 ft | 370 kts | 244° |
| 2026-04-24 15:51 | 60.25204 | 24.40062 | 18560 ft | 373 kts | 244° |
| 2026-04-24 15:51 | 60.23765 | 24.35681 | 19116 ft | 376 kts | 244° |
| 2026-04-24 15:52 | 60.22312 | 24.31265 | 19664 ft | 380 kts | 244° |
| 2026-04-24 15:52 | 60.20858 | 24.26863 | 20210 ft | 383 kts | 244° |
| 2026-04-24 15:52 | 60.19378 | 24.22394 | 20762 ft | 386 kts | 244° |
| 2026-04-24 15:52 | 60.17887 | 24.17891 | 21324 ft | 389 kts | 244° |
| 2026-04-24 15:53 | 60.16380 | 24.13346 | 21879 ft | 392 kts | 244° |
| 2026-04-24 15:53 | 60.14860 | 24.08775 | 22400 ft | 395 kts | 243° |
| 2026-04-24 15:53 | 60.13321 | 24.04163 | 22898 ft | 399 kts | 243° |
| 2026-04-24 15:53 | 60.11768 | 23.99529 | 23404 ft | 402 kts | 243° |
| 2026-04-24 15:54 | 60.10196 | 23.94854 | 23808 ft | 405 kts | 243° |
| 2026-04-24 15:54 | 60.08624 | 23.90149 | 24207 ft | 406 kts | 244° |
| 2026-04-24 15:54 | 60.07269 | 23.85215 | 24620 ft | 404 kts | 249° |
| 2026-04-24 15:54 | 60.05970 | 23.80210 | 25013 ft | 406 kts | 248° |
| 2026-04-24 15:55 | 60.04677 | 23.75250 | 25431 ft | 408 kts | 248° |
| 2026-04-24 15:55 | 60.03352 | 23.70189 | 25842 ft | 410 kts | 248° |
| 2026-04-24 15:55 | 60.02018 | 23.65115 | 26244 ft | 413 kts | 248° |
| 2026-04-24 15:55 | 60.00689 | 23.60077 | 26625 ft | 415 kts | 248° |
| 2026-04-24 15:56 | 59.99336 | 23.54959 | 27003 ft | 418 kts | 247° |
| 2026-04-24 15:56 | 59.97972 | 23.49813 | 27393 ft | 420 kts | 247° |
| 2026-04-24 15:56 | 59.96595 | 23.44629 | 27770 ft | 422 kts | 247° |
| 2026-04-24 15:56 | 59.95208 | 23.39416 | 28142 ft | 425 kts | 247° |
| 2026-04-24 15:57 | 59.93812 | 23.34199 | 28511 ft | 427 kts | 246° |
| 2026-04-24 15:57 | 59.92406 | 23.28964 | 28871 ft | 430 kts | 246° |
| 2026-04-24 15:57 | 59.91467 | 23.25472 | 29105 ft | 431 kts | 246° |
| 2026-04-24 15:57 | 59.89585 | 23.18463 | 29565 ft | 434 kts | 246° |
| 2026-04-24 15:58 | 59.88150 | 23.13127 | 29893 ft | 437 kts | 246° |
| 2026-04-24 15:58 | 59.86709 | 23.07780 | 30193 ft | 438 kts | 245° |
| 2026-04-24 15:58 | 59.85256 | 23.02418 | 30499 ft | 440 kts | 245° |
| 2026-04-24 15:58 | 59.83795 | 22.97040 | 30791 ft | 443 kts | 245° |
| 2026-04-24 15:59 | 59.82328 | 22.91657 | 31177 ft | 442 kts | 244° |
| 2026-04-24 15:59 | 59.80882 | 22.86360 | 31584 ft | 441 kts | 244° |
| 2026-04-24 15:59 | 59.79416 | 22.80995 | 31981 ft | 440 kts | 244° |
| 2026-04-24 15:59 | 59.77953 | 22.75647 | 32368 ft | 440 kts | 244° |
| 2026-04-24 16:00 | 59.76490 | 22.70306 | 32753 ft | 439 kts | 244° |
| 2026-04-24 16:00 | 59.75024 | 22.64971 | 33123 ft | 439 kts | 244° |
| 2026-04-24 16:00 | 59.73561 | 22.59663 | 33510 ft | 439 kts | 244° |
| 2026-04-24 16:00 | 59.72112 | 22.54427 | 33879 ft | 438 kts | 244° |
| 2026-04-24 16:01 | 59.70641 | 22.49124 | 34182 ft | 438 kts | 244° |
| 2026-04-24 16:01 | 59.69170 | 22.43832 | 34467 ft | 438 kts | 244° |
| 2026-04-24 16:01 | 59.67696 | 22.38547 | 34745 ft | 439 kts | 244° |
| 2026-04-24 16:01 | 59.66219 | 22.33254 | 35026 ft | 439 kts | 244° |
| 2026-04-24 16:02 | 59.64742 | 22.27960 | 35299 ft | 439 kts | 244° |
| 2026-04-24 16:02 | 59.63258 | 22.22660 | 35580 ft | 440 kts | 244° |
| 2026-04-24 16:02 | 59.61795 | 22.17445 | 35797 ft | 441 kts | 244° |
| 2026-04-24 16:02 | 59.60308 | 22.12160 | 35849 ft | 439 kts | 244° |
| 2026-04-24 16:03 | 59.57331 | 22.01635 | 35854 ft | 437 kts | 244° |
| 2026-04-24 16:03 | 59.54353 | 21.91154 | 35855 ft | 437 kts | 243° |
| 2026-04-24 16:04 | 59.51389 | 21.80752 | 35854 ft | 437 kts | 243° |
| 2026-04-24 16:04 | 59.48398 | 21.70312 | 35863 ft | 437 kts | 243° |
| 2026-04-24 16:05 | 59.43887 | 21.54682 | 35869 ft | 438 kts | 243° |
| 2026-04-24 16:06 | 59.39379 | 21.39115 | 35888 ft | 438 kts | 243° |
| 2026-04-24 16:07 | 59.34856 | 21.23601 | 35899 ft | 438 kts | 243° |
| 2026-04-24 16:07 | 59.30294 | 21.08052 | 35881 ft | 438 kts | 243° |
| 2026-04-24 16:08 | 59.25718 | 20.92558 | 35895 ft | 438 kts | 242° |
| 2026-04-24 16:09 | 59.21131 | 20.77176 | 35903 ft | 438 kts | 242° |
| 2026-04-24 16:09 | 59.17956 | 20.67097 | 35907 ft | 440 kts | 235° |
| 2026-04-24 16:11 | 59.08416 | 20.46217 | 35906 ft | 442 kts | 231° |
| 2026-04-24 16:11 | 59.03642 | 20.35899 | 35909 ft | 441 kts | 231° |
| 2026-04-24 16:12 | 58.97479 | 20.22662 | 35916 ft | 441 kts | 231° |
| 2026-04-24 16:13 | 58.91977 | 20.10944 | 35925 ft | 441 kts | 231° |
| 2026-04-24 16:14 | 58.83687 | 19.93369 | 35932 ft | 441 kts | 231° |
| 2026-04-24 16:14 | 58.77498 | 19.80317 | 35930 ft | 440 kts | 231° |
| 2026-04-24 16:15 | 58.71272 | 19.67267 | 35947 ft | 440 kts | 231° |
| 2026-04-24 16:16 | 58.65065 | 19.54352 | 35939 ft | 439 kts | 231° |
| 2026-04-24 16:17 | 58.54693 | 19.32912 | 35942 ft | 437 kts | 231° |
| 2026-04-24 16:18 | 58.46410 | 19.15940 | 35944 ft | 437 kts | 231° |
| 2026-04-24 16:19 | 58.40176 | 19.03242 | 35942 ft | 437 kts | 230° |
| 2026-04-24 16:20 | 58.33938 | 18.90623 | 35933 ft | 437 kts | 230° |
| 2026-04-24 16:20 | 58.27674 | 18.77987 | 35931 ft | 437 kts | 230° |
| 2026-04-24 16:21 | 58.21419 | 18.65446 | 35917 ft | 437 kts | 230° |
| 2026-04-24 16:22 | 58.17212 | 18.57071 | 35924 ft | 437 kts | 230° |
| 2026-04-24 16:22 | 58.10931 | 18.44606 | 35938 ft | 437 kts | 230° |
| 2026-04-24 16:23 | 58.06718 | 18.36285 | 35950 ft | 437 kts | 230° |
| 2026-04-24 16:24 | 58.00409 | 18.23881 | 35928 ft | 438 kts | 230° |
| 2026-04-24 16:24 | 57.96179 | 18.15594 | 35952 ft | 437 kts | 230° |
| 2026-04-24 16:25 | 57.91968 | 18.07380 | 35959 ft | 437 kts | 230° |
| 2026-04-24 16:25 | 57.87733 | 17.99152 | 35957 ft | 436 kts | 230° |
| 2026-04-24 16:26 | 57.81422 | 17.86939 | 35958 ft | 436 kts | 230° |
| 2026-04-24 16:27 | 57.75066 | 17.74709 | 35919 ft | 435 kts | 231° |
| 2026-04-24 16:27 | 57.70833 | 17.66603 | 35950 ft | 435 kts | 231° |
| 2026-04-24 16:28 | 57.66622 | 17.58561 | 35955 ft | 434 kts | 230° |
| 2026-04-24 16:28 | 57.60288 | 17.46542 | 35956 ft | 433 kts | 230° |
| 2026-04-24 16:29 | 57.56054 | 17.38524 | 35958 ft | 433 kts | 230° |
| 2026-04-24 16:30 | 57.47600 | 17.22591 | 35959 ft | 433 kts | 230° |
| 2026-04-24 16:30 | 57.43360 | 17.14642 | 35962 ft | 433 kts | 230° |
| 2026-04-24 16:31 | 57.39129 | 17.06746 | 35966 ft | 433 kts | 230° |
| 2026-04-24 16:31 | 57.34870 | 16.98829 | 35962 ft | 433 kts | 230° |
| 2026-04-24 16:32 | 57.30610 | 16.90939 | 35945 ft | 432 kts | 231° |
| 2026-04-24 16:32 | 57.26352 | 16.83086 | 35960 ft | 431 kts | 230° |
| 2026-04-24 16:33 | 57.22126 | 16.75312 | 35966 ft | 431 kts | 230° |
| 2026-04-24 16:33 | 57.17872 | 16.67511 | 35967 ft | 430 kts | 230° |
| 2026-04-24 16:34 | 57.13613 | 16.59724 | 35964 ft | 430 kts | 230° |
| 2026-04-24 16:34 | 57.09370 | 16.51997 | 35935 ft | 430 kts | 231° |
| 2026-04-24 16:35 | 57.05121 | 16.44267 | 35959 ft | 429 kts | 231° |
| 2026-04-24 16:35 | 57.00868 | 16.36568 | 35964 ft | 428 kts | 231° |
| 2026-04-24 16:36 | 56.96638 | 16.28949 | 35967 ft | 428 kts | 231° |
| 2026-04-24 16:36 | 56.92383 | 16.21307 | 35967 ft | 427 kts | 231° |
| 2026-04-24 16:37 | 56.88154 | 16.13728 | 35962 ft | 427 kts | 231° |
| 2026-04-24 16:37 | 56.83901 | 16.06140 | 35958 ft | 426 kts | 231° |
| 2026-04-24 16:38 | 56.79646 | 15.98580 | 35965 ft | 425 kts | 231° |
| 2026-04-24 16:38 | 56.75423 | 15.91110 | 35931 ft | 425 kts | 230° |
| 2026-04-24 16:39 | 56.71165 | 15.83580 | 35935 ft | 425 kts | 230° |
| 2026-04-24 16:39 | 56.66935 | 15.76116 | 35938 ft | 425 kts | 230° |
| 2026-04-24 16:40 | 56.62674 | 15.68630 | 35917 ft | 425 kts | 231° |
| 2026-04-24 16:40 | 56.58419 | 15.61187 | 35939 ft | 424 kts | 231° |
| 2026-04-24 16:41 | 56.54193 | 15.53812 | 35954 ft | 424 kts | 231° |
| 2026-04-24 16:41 | 56.49931 | 15.46396 | 35761 ft | 424 kts | 231° |
| 2026-04-24 16:42 | 56.47806 | 15.42712 | 35512 ft | 422 kts | 231° |
| 2026-04-24 16:42 | 56.45685 | 15.39042 | 35266 ft | 422 kts | 231° |
| 2026-04-24 16:42 | 56.43557 | 15.35370 | 35020 ft | 421 kts | 231° |
| 2026-04-24 16:42 | 56.41459 | 15.31760 | 34750 ft | 421 kts | 232° |
| 2026-04-24 16:43 | 56.39334 | 15.28102 | 34510 ft | 420 kts | 232° |
| 2026-04-24 16:43 | 56.37219 | 15.24454 | 34275 ft | 419 kts | 232° |
| 2026-04-24 16:43 | 56.35112 | 15.20820 | 33810 ft | 418 kts | 232° |
| 2026-04-24 16:43 | 56.33015 | 15.17219 | 33338 ft | 413 kts | 232° |
| 2026-04-24 16:44 | 56.30960 | 15.13711 | 32876 ft | 409 kts | 232° |
| 2026-04-24 16:44 | 56.28896 | 15.10203 | 32416 ft | 405 kts | 232° |
| 2026-04-24 16:44 | 56.26852 | 15.06726 | 31950 ft | 400 kts | 232° |
| 2026-04-24 16:44 | 56.24837 | 15.03295 | 31471 ft | 396 kts | 232° |
| 2026-04-24 16:45 | 56.22844 | 14.99902 | 31045 ft | 392 kts | 233° |
| 2026-04-24 16:45 | 56.20895 | 14.96586 | 30592 ft | 388 kts | 233° |
| 2026-04-24 16:45 | 56.18938 | 14.93267 | 30133 ft | 385 kts | 232° |
| 2026-04-24 16:45 | 56.16995 | 14.89978 | 29668 ft | 381 kts | 232° |
| 2026-04-24 16:46 | 56.15076 | 14.86732 | 29221 ft | 377 kts | 232° |
| 2026-04-24 16:46 | 56.13244 | 14.83434 | 28783 ft | 367 kts | 239° |
| 2026-04-24 16:46 | 56.11735 | 14.79837 | 28357 ft | 358 kts | 243° |
| 2026-04-24 16:46 | 56.10309 | 14.76258 | 27944 ft | 355 kts | 243° |
| 2026-04-24 16:47 | 56.08874 | 14.72679 | 27540 ft | 353 kts | 243° |
| 2026-04-24 16:47 | 56.07442 | 14.69126 | 27134 ft | 350 kts | 243° |
| 2026-04-24 16:47 | 56.06014 | 14.65598 | 26737 ft | 348 kts | 243° |
| 2026-04-24 16:47 | 56.04596 | 14.62095 | 26349 ft | 345 kts | 243° |
| 2026-04-24 16:48 | 56.03195 | 14.58630 | 25968 ft | 342 kts | 243° |
| 2026-04-24 16:48 | 56.01826 | 14.55245 | 25601 ft | 338 kts | 243° |
| 2026-04-24 16:48 | 56.00453 | 14.51853 | 25223 ft | 335 kts | 243° |
| 2026-04-24 16:48 | 55.99090 | 14.48493 | 24862 ft | 332 kts | 242° |
| 2026-04-24 16:49 | 55.97738 | 14.45167 | 24495 ft | 330 kts | 242° |
| 2026-04-24 16:49 | 55.96385 | 14.41836 | 24140 ft | 330 kts | 242° |
| 2026-04-24 16:49 | 55.95050 | 14.38562 | 23768 ft | 329 kts | 242° |
| 2026-04-24 16:49 | 55.93701 | 14.35264 | 23372 ft | 327 kts | 242° |
| 2026-04-24 16:50 | 55.92812 | 14.33089 | 23098 ft | 326 kts | 242° |
| 2026-04-24 16:50 | 55.91029 | 14.28727 | 22581 ft | 324 kts | 242° |
| 2026-04-24 16:50 | 55.89703 | 14.25490 | 22203 ft | 322 kts | 242° |
| 2026-04-24 16:50 | 55.88400 | 14.22306 | 21809 ft | 320 kts | 242° |
| 2026-04-24 16:51 | 55.87087 | 14.19106 | 21429 ft | 318 kts | 242° |
| 2026-04-24 16:51 | 55.85780 | 14.15929 | 21038 ft | 316 kts | 242° |
| 2026-04-24 16:51 | 55.84478 | 14.12776 | 20643 ft | 315 kts | 242° |
| 2026-04-24 16:51 | 55.83183 | 14.09638 | 20243 ft | 313 kts | 242° |
| 2026-04-24 16:52 | 55.81909 | 14.06551 | 19860 ft | 311 kts | 242° |
| 2026-04-24 16:52 | 55.80624 | 14.03447 | 19483 ft | 310 kts | 241° |
| 2026-04-24 16:52 | 55.79347 | 14.00368 | 19100 ft | 308 kts | 241° |
| 2026-04-24 16:52 | 55.78008 | 13.97384 | 18707 ft | 311 kts | 234° |
| 2026-04-24 16:53 | 55.76382 | 13.94857 | 18297 ft | 318 kts | 222° |
| 2026-04-24 16:53 | 55.74512 | 13.92725 | 17851 ft | 319 kts | 219° |
| 2026-04-24 16:53 | 55.72625 | 13.90626 | 17434 ft | 318 kts | 219° |
| 2026-04-24 16:53 | 55.70775 | 13.88567 | 17030 ft | 316 kts | 219° |
| 2026-04-24 16:54 | 55.68916 | 13.86498 | 16622 ft | 315 kts | 219° |
| 2026-04-24 16:54 | 55.67059 | 13.84432 | 16222 ft | 314 kts | 219° |
| 2026-04-24 16:54 | 55.65209 | 13.82375 | 15810 ft | 313 kts | 219° |
| 2026-04-24 16:54 | 55.63363 | 13.80322 | 15400 ft | 312 kts | 219° |
| 2026-04-24 16:55 | 55.61544 | 13.78300 | 14987 ft | 312 kts | 219° |
| 2026-04-24 16:55 | 55.59705 | 13.76257 | 14587 ft | 312 kts | 219° |
| 2026-04-24 16:55 | 55.57867 | 13.74217 | 14180 ft | 311 kts | 219° |
| 2026-04-24 16:55 | 55.56028 | 13.72178 | 13789 ft | 311 kts | 219° |
| 2026-04-24 16:56 | 55.54196 | 13.70147 | 13391 ft | 310 kts | 219° |
| 2026-04-24 16:56 | 55.52372 | 13.68126 | 12928 ft | 308 kts | 219° |
| 2026-04-24 16:56 | 55.50561 | 13.66125 | 12554 ft | 306 kts | 219° |
| 2026-04-24 16:56 | 55.48775 | 13.64159 | 12169 ft | 305 kts | 219° |
| 2026-04-24 16:57 | 55.46973 | 13.62177 | 11781 ft | 304 kts | 219° |
| 2026-04-24 16:57 | 55.45184 | 13.60192 | 11383 ft | 302 kts | 221° |
| 2026-04-24 16:57 | 55.43686 | 13.57728 | 11018 ft | 289 kts | 239° |
| 2026-04-24 16:57 | 55.42723 | 13.54709 | 10665 ft | 277 kts | 256° |
| 2026-04-24 16:58 | 55.42324 | 13.51501 | 10322 ft | 268 kts | 271° |
| 2026-04-24 16:58 | 55.42459 | 13.48300 | 10153 ft | 260 kts | 286° |
| 2026-04-24 16:58 | 55.42974 | 13.45231 | 10045 ft | 261 kts | 290° |
| 2026-04-24 16:58 | 55.43511 | 13.42155 | 9780 ft | 264 kts | 290° |
| 2026-04-24 16:59 | 55.44045 | 13.39050 | 9373 ft | 264 kts | 290° |
| 2026-04-24 16:59 | 55.44563 | 13.36006 | 9000 ft | 262 kts | 290° |
| 2026-04-24 16:59 | 55.45552 | 13.29847 | 8257 ft | 261 kts | 282° |
| 2026-04-24 17:00 | 55.45547 | 13.26638 | 7896 ft | 265 kts | 264° |
| 2026-04-24 17:00 | 55.44174 | 13.20513 | 7695 ft | 272 kts | 250° |
| 2026-04-24 17:00 | 55.43392 | 13.17525 | 7563 ft | 271 kts | 252° |
| 2026-04-24 17:01 | 55.42915 | 13.11150 | 7317 ft | 262 kts | 272° |
| 2026-04-24 17:01 | 55.42864 | 13.07945 | 7193 ft | 261 kts | 272° |
| 2026-04-24 17:02 | 55.42778 | 13.02623 | 6988 ft | 260 kts | 272° |
| 2026-04-24 17:02 | 55.42724 | 12.99427 | 6856 ft | 261 kts | 272° |
| 2026-04-24 17:02 | 55.42649 | 12.95200 | 6707 ft | 260 kts | 272° |
| 2026-04-24 17:02 | 55.42590 | 12.92004 | 6579 ft | 260 kts | 272° |
| 2026-04-24 17:03 | 55.42494 | 12.86706 | 6386 ft | 260 kts | 272° |
| 2026-04-24 17:03 | 55.42434 | 12.83528 | 6224 ft | 258 kts | 272° |
| 2026-04-24 17:03 | 55.42373 | 12.80372 | 6108 ft | 258 kts | 272° |
| 2026-04-24 17:04 | 55.42314 | 12.77247 | 5980 ft | 258 kts | 272° |
| 2026-04-24 17:04 | 55.42193 | 12.70956 | 5724 ft | 256 kts | 272° |
| 2026-04-24 17:04 | 55.42130 | 12.67816 | 5597 ft | 256 kts | 272° |
| 2026-04-24 17:05 | 55.42064 | 12.64670 | 5457 ft | 255 kts | 271° |
| 2026-04-24 17:05 | 55.41997 | 12.61572 | 5190 ft | 251 kts | 271° |
| 2026-04-24 17:05 | 55.41870 | 12.55679 | 4901 ft | 232 kts | 272° |
| 2026-04-24 17:06 | 55.41865 | 12.52893 | 4746 ft | 221 kts | 280° |
| 2026-04-24 17:06 | 55.43166 | 12.48198 | 4130 ft | 218 kts | 312° |
| 2026-04-24 17:06 | 55.44149 | 12.46252 | 3793 ft | 211 kts | 311° |
| 2026-04-24 17:07 | 55.45087 | 12.44368 | 3543 ft | 202 kts | 310° |
| 2026-04-24 17:07 | 55.46141 | 12.42843 | 3347 ft | 198 kts | 334° |
| 2026-04-24 17:07 | 55.48646 | 12.44050 | 2830 ft | 196 kts | 34° |
| 2026-04-24 17:08 | 55.50584 | 12.47064 | 2299 ft | 176 kts | 35° |
| 2026-04-24 17:08 | 55.51475 | 12.48437 | 2081 ft | 167 kts | 34° |
| 2026-04-24 17:08 | 55.52341 | 12.49765 | 1851 ft | 164 kts | 35° |
| 2026-04-24 17:09 | 55.53958 | 12.52252 | 1423 ft | 147 kts | 34° |
| 2026-04-24 17:09 | 55.55503 | 12.54624 | 1004 ft | 147 kts | 35° |
| 2026-04-24 17:10 | 55.56271 | 12.55804 | 796 ft | 146 kts | 36° |
| 2026-04-24 17:10 | 55.58566 | 12.59355 | 237 ft | 146 kts | 34° |
| 2026-04-24 17:11 | 55.60481 | 12.62285 | 20 ft | 63 kts | 43° |
| 2026-04-24 17:12 | 55.61156 | 12.62966 | 23 ft | 9 kts | 39° |